Terminal Aerodrome Forecast
Issued by NWS

Home | Current Version | Previous Version | Text Only | Print | Product List | Glossary On
Versions: 1 2 3 4 5 6 7 8 9 10 11 12 13 14 15 16 17 18
000
FTUS45 KBOI 250520
TAFJER
TAF
KJER 250520Z 2506/2606 19012KT P6SM -RA OVC035
     FM251100 24011KT P6SM VCSH OVC040
     FM251300 25015KT P6SM BKN050
     FM260400 21009KT P6SM SCT040=

USA.gov is the U.S. government's official web portal to all federal, state and local government web resources and services.